sensor_id;sensor_type;location;lat;lon;timestamp;P1;durP1;ratioP1;P2;durP2;ratioP2
22764;SDS011;11549;50.852;3.816;2023-04-24T00:02:27;35.50;;;21.38;;
22764;SDS011;11549;50.852;3.816;2023-04-24T00:04:57;33.50;;;20.30;;
22764;SDS011;11549;50.852;3.816;2023-04-24T00:07:29;35.50;;;20.13;;
22764;SDS011;11549;50.852;3.816;2023-04-24T00:09:58;33.33;;;20.15;;
22764;SDS011;11549;50.852;3.816;2023-04-24T00:12:26;34.63;;;19.85;;
22764;SDS011;11549;50.852;3.816;2023-04-24T00:14:56;36.30;;;20.90;;
22764;SDS011;11549;50.852;3.816;2023-04-24T00:17:24;37.50;;;20.10;;
22764;SDS011;11549;50.852;3.816;2023-04-24T00:19:53;33.40;;;20.08;;
22764;SDS011;11549;50.852;3.816;2023-04-24T00:22:25;31.77;;;20.00;;
22764;SDS011;11549;50.852;3.816;2023-04-24T00:24:55;34.45;;;19.48;;
22764;SDS011;11549;50.852;3.816;2023-04-24T00:27:23;32.20;;;19.25;;
22764;SDS011;11549;50.852;3.816;2023-04-24T00:29:51;31.27;;;18.88;;
22764;SDS011;11549;50.852;3.816;2023-04-24T00:32:21;27.92;;;18.67;;
22764;SDS011;11549;50.852;3.816;2023-04-24T00:34:49;30.85;;;18.50;;
22764;SDS011;11549;50.852;3.816;2023-04-24T00:37:18;30.05;;;18.65;;
22764;SDS011;11549;50.852;3.816;2023-04-24T00:39:47;27.02;;;17.80;;
22764;SDS011;11549;50.852;3.816;2023-04-24T00:42:15;28.83;;;17.10;;
22764;SDS011;11549;50.852;3.816;2023-04-24T00:44:43;24.52;;;15.93;;
22764;SDS011;11549;50.852;3.816;2023-04-24T00:47:12;24.75;;;16.60;;
22764;SDS011;11549;50.852;3.816;2023-04-24T00:49:43;27.88;;;16.40;;
22764;SDS011;11549;50.852;3.816;2023-04-24T00:52:11;25.15;;;15.77;;
22764;SDS011;11549;50.852;3.816;2023-04-24T00:54:44;21.35;;;13.88;;
22764;SDS011;11549;50.852;3.816;2023-04-24T00:57:13;21.35;;;14.43;;
22764;SDS011;11549;50.852;3.816;2023-04-24T00:59:42;21.10;;;13.18;;
22764;SDS011;11549;50.852;3.816;2023-04-24T01:02:11;17.08;;;11.25;;
22764;SDS011;11549;50.852;3.816;2023-04-24T01:04:43;13.82;;;8.82;;
22764;SDS011;11549;50.852;3.816;2023-04-24T01:07:11;13.80;;;8.18;;
22764;SDS011;11549;50.852;3.816;2023-04-24T01:09:40;12.55;;;8.75;;
22764;SDS011;11549;50.852;3.816;2023-04-24T01:12:10;12.75;;;8.55;;
22764;SDS011;11549;50.852;3.816;2023-04-24T01:14:38;16.30;;;9.93;;
22764;SDS011;11549;50.852;3.816;2023-04-24T01:17:06;13.93;;;9.80;;
22764;SDS011;11549;50.852;3.816;2023-04-24T01:19:35;19.48;;;11.20;;
22764;SDS011;11549;50.852;3.816;2023-04-24T01:22:08;19.02;;;12.48;;
22764;SDS011;11549;50.852;3.816;2023-04-24T01:24:39;20.58;;;13.23;;
22764;SDS011;11549;50.852;3.816;2023-04-24T01:27:07;22.90;;;14.05;;
22764;SDS011;11549;50.852;3.816;2023-04-24T01:29:36;27.10;;;16.30;;
22764;SDS011;11549;50.852;3.816;2023-04-24T01:32:05;25.52;;;15.65;;
22764;SDS011;11549;50.852;3.816;2023-04-24T01:34:34;22.13;;;15.85;;
22764;SDS011;11549;50.852;3.816;2023-04-24T01:37:02;24.25;;;15.95;;
22764;SDS011;11549;50.852;3.816;2023-04-24T01:39:33;23.88;;;15.20;;
22764;SDS011;11549;50.852;3.816;2023-04-24T01:42:01;24.15;;;15.70;;
22764;SDS011;11549;50.852;3.816;2023-04-24T01:44:29;21.92;;;15.35;;
22764;SDS011;11549;50.852;3.816;2023-04-24T01:46:59;24.20;;;16.25;;
22764;SDS011;11549;50.852;3.816;2023-04-24T01:49:28;25.30;;;15.75;;
22764;SDS011;11549;50.852;3.816;2023-04-24T01:51:57;24.15;;;15.77;;
22764;SDS011;11549;50.852;3.816;2023-04-24T01:54:26;23.20;;;15.93;;
22764;SDS011;11549;50.852;3.816;2023-04-24T01:56:55;28.10;;;16.85;;
22764;SDS011;11549;50.852;3.816;2023-04-24T01:59:24;25.33;;;16.55;;
22764;SDS011;11549;50.852;3.816;2023-04-24T02:01:54;25.98;;;15.77;;
22764;SDS011;11549;50.852;3.816;2023-04-24T02:04:23;26.08;;;16.33;;
22764;SDS011;11549;50.852;3.816;2023-04-24T02:06:51;25.15;;;16.27;;
22764;SDS011;11549;50.852;3.816;2023-04-24T02:09:20;26.55;;;16.55;;
22764;SDS011;11549;50.852;3.816;2023-04-24T02:11:48;23.30;;;15.65;;
22764;SDS011;11549;50.852;3.816;2023-04-24T02:14:17;25.17;;;15.80;;
22764;SDS011;11549;50.852;3.816;2023-04-24T02:16:46;22.63;;;15.68;;
22764;SDS011;11549;50.852;3.816;2023-04-24T02:19:14;29.67;;;16.15;;
22764;SDS011;11549;50.852;3.816;2023-04-24T02:21:42;29.35;;;15.48;;
22764;SDS011;11549;50.852;3.816;2023-04-24T02:24:11;23.52;;;14.75;;
22764;SDS011;11549;50.852;3.816;2023-04-24T02:26:39;28.02;;;15.07;;
22764;SDS011;11549;50.852;3.816;2023-04-24T02:29:07;24.52;;;15.32;;
22764;SDS011;11549;50.852;3.816;2023-04-24T02:31:38;22.45;;;15.10;;
22764;SDS011;11549;50.852;3.816;2023-04-24T02:34:06;23.90;;;15.35;;
22764;SDS011;11549;50.852;3.816;2023-04-24T02:36:35;24.60;;;14.95;;
22764;SDS011;11549;50.852;3.816;2023-04-24T02:39:04;22.85;;;14.73;;
22764;SDS011;11549;50.852;3.816;2023-04-24T02:41:32;23.67;;;14.63;;
22764;SDS011;11549;50.852;3.816;2023-04-24T02:44:01;22.75;;;15.15;;
22764;SDS011;11549;50.852;3.816;2023-04-24T02:46:29;23.23;;;15.07;;
22764;SDS011;11549;50.852;3.816;2023-04-24T02:48:59;23.00;;;15.23;;
22764;SDS011;11549;50.852;3.816;2023-04-24T02:51:27;22.63;;;15.98;;
22764;SDS011;11549;50.852;3.816;2023-04-24T02:53:56;20.80;;;15.15;;
22764;SDS011;11549;50.852;3.816;2023-04-24T02:56:24;22.73;;;15.23;;
22764;SDS011;11549;50.852;3.816;2023-04-24T02:58:53;23.75;;;15.77;;
22764;SDS011;11549;50.852;3.816;2023-04-24T03:01:21;23.20;;;15.80;;
22764;SDS011;11549;50.852;3.816;2023-04-24T03:03:49;22.33;;;15.35;;
22764;SDS011;11549;50.852;3.816;2023-04-24T03:06:20;21.15;;;15.57;;
22764;SDS011;11549;50.852;3.816;2023-04-24T03:08:48;19.08;;;14.60;;
22764;SDS011;11549;50.852;3.816;2023-04-24T03:11:16;19.33;;;13.45;;
22764;SDS011;11549;50.852;3.816;2023-04-24T03:13:45;19.80;;;14.30;;
22764;SDS011;11549;50.852;3.816;2023-04-24T03:16:13;20.27;;;13.15;;
22764;SDS011;11549;50.852;3.816;2023-04-24T03:18:41;18.55;;;13.80;;
22764;SDS011;11549;50.852;3.816;2023-04-24T03:21:10;20.25;;;14.05;;
22764;SDS011;11549;50.852;3.816;2023-04-24T03:23:40;21.80;;;14.50;;
22764;SDS011;11549;50.852;3.816;2023-04-24T03:26:09;18.60;;;13.40;;
22764;SDS011;11549;50.852;3.816;2023-04-24T03:28:37;22.08;;;13.23;;
22764;SDS011;11549;50.852;3.816;2023-04-24T03:31:06;18.80;;;13.82;;
22764;SDS011;11549;50.852;3.816;2023-04-24T03:33:34;21.15;;;13.80;;
22764;SDS011;11549;50.852;3.816;2023-04-24T03:36:02;17.63;;;12.38;;
22764;SDS011;11549;50.852;3.816;2023-04-24T03:38:32;17.77;;;11.63;;
22764;SDS011;11549;50.852;3.816;2023-04-24T03:41:01;22.00;;;12.07;;
22764;SDS011;11549;50.852;3.816;2023-04-24T03:43:30;14.75;;;10.18;;
22764;SDS011;11549;50.852;3.816;2023-04-24T03:45:59;15.73;;;10.68;;
22764;SDS011;11549;50.852;3.816;2023-04-24T03:48:28;17.48;;;10.48;;
22764;SDS011;11549;50.852;3.816;2023-04-24T03:50:56;17.83;;;10.60;;
22764;SDS011;11549;50.852;3.816;2023-04-24T03:53:25;18.70;;;11.45;;
22764;SDS011;11549;50.852;3.816;2023-04-24T03:55:53;18.13;;;10.75;;
22764;SDS011;11549;50.852;3.816;2023-04-24T03:58:23;16.13;;;11.00;;
22764;SDS011;11549;50.852;3.816;2023-04-24T04:00:51;19.90;;;12.70;;
22764;SDS011;11549;50.852;3.816;2023-04-24T04:03:20;20.08;;;12.45;;
22764;SDS011;11549;50.852;3.816;2023-04-24T04:05:49;18.63;;;12.38;;
22764;SDS011;11549;50.852;3.816;2023-04-24T04:08:18;19.98;;;13.30;;
22764;SDS011;11549;50.852;3.816;2023-04-24T04:10:46;22.10;;;14.25;;
22764;SDS011;11549;50.852;3.816;2023-04-24T04:13:14;23.50;;;14.93;;
22764;SDS011;11549;50.852;3.816;2023-04-24T04:15:44;25.70;;;16.55;;
22764;SDS011;11549;50.852;3.816;2023-04-24T04:18:12;26.95;;;15.70;;
22764;SDS011;11549;50.852;3.816;2023-04-24T04:20:41;25.83;;;16.88;;
22764;SDS011;11549;50.852;3.816;2023-04-24T04:23:10;28.05;;;17.33;;
22764;SDS011;11549;50.852;3.816;2023-04-24T04:25:38;29.38;;;18.33;;
22764;SDS011;11549;50.852;3.816;2023-04-24T04:28:06;28.73;;;17.63;;
22764;SDS011;11549;50.852;3.816;2023-04-24T04:30:35;29.02;;;18.38;;
22764;SDS011;11549;50.852;3.816;2023-04-24T04:33:05;29.67;;;18.08;;
22764;SDS011;11549;50.852;3.816;2023-04-24T04:35:34;31.42;;;18.63;;
22764;SDS011;11549;50.852;3.816;2023-04-24T04:38:03;30.35;;;18.70;;
22764;SDS011;11549;50.852;3.816;2023-04-24T04:40:34;29.48;;;18.48;;
22764;SDS011;11549;50.852;3.816;2023-04-24T04:43:02;33.45;;;18.77;;
22764;SDS011;11549;50.852;3.816;2023-04-24T04:45:31;27.38;;;17.27;;
22764;SDS011;11549;50.852;3.816;2023-04-24T04:48:00;26.63;;;17.20;;
22764;SDS011;11549;50.852;3.816;2023-04-24T04:50:31;26.40;;;16.15;;
22764;SDS011;11549;50.852;3.816;2023-04-24T04:52:59;28.98;;;16.35;;
22764;SDS011;11549;50.852;3.816;2023-04-24T04:55:28;29.33;;;17.45;;
22764;SDS011;11549;50.852;3.816;2023-04-24T04:57:56;29.63;;;16.95;;
22764;SDS011;11549;50.852;3.816;2023-04-24T05:00:25;25.23;;;16.33;;
22764;SDS011;11549;50.852;3.816;2023-04-24T05:02:55;27.63;;;17.13;;
22764;SDS011;11549;50.852;3.816;2023-04-24T05:05:45;28.65;;;17.20;;
22764;SDS011;11549;50.852;3.816;2023-04-24T05:08:13;27.20;;;17.25;;
22764;SDS011;11549;50.852;3.816;2023-04-24T05:10:52;22.33;;;15.23;;
22764;SDS011;11549;50.852;3.816;2023-04-24T05:13:20;26.83;;;15.68;;
22764;SDS011;11549;50.852;3.816;2023-04-24T05:16:05;27.15;;;15.77;;
22764;SDS011;11549;50.852;3.816;2023-04-24T05:18:33;28.92;;;16.65;;
22764;SDS011;11549;50.852;3.816;2023-04-24T05:21:03;29.58;;;15.82;;
22764;SDS011;11549;50.852;3.816;2023-04-24T05:23:31;27.60;;;16.48;;
22764;SDS011;11549;50.852;3.816;2023-04-24T05:25:59;26.00;;;16.65;;
22764;SDS011;11549;50.852;3.816;2023-04-24T05:28:28;28.80;;;16.50;;
22764;SDS011;11549;50.852;3.816;2023-04-24T05:30:56;29.60;;;16.38;;
22764;SDS011;11549;50.852;3.816;2023-04-24T05:33:25;24.15;;;16.27;;
22764;SDS011;11549;50.852;3.816;2023-04-24T05:35:54;26.88;;;15.68;;
22764;SDS011;11549;50.852;3.816;2023-04-24T05:38:23;29.83;;;17.08;;
22764;SDS011;11549;50.852;3.816;2023-04-24T05:40:52;30.33;;;16.92;;
22764;SDS011;11549;50.852;3.816;2023-04-24T05:43:20;33.13;;;18.63;;
22764;SDS011;11549;50.852;3.816;2023-04-24T05:45:48;27.10;;;17.77;;
22764;SDS011;11549;50.852;3.816;2023-04-24T05:48:17;30.77;;;18.60;;
22764;SDS011;11549;50.852;3.816;2023-04-24T05:50:45;29.75;;;19.23;;
22764;SDS011;11549;50.852;3.816;2023-04-24T05:53:14;34.22;;;20.45;;
22764;SDS011;11549;50.852;3.816;2023-04-24T05:55:44;36.97;;;20.67;;
22764;SDS011;11549;50.852;3.816;2023-04-24T05:58:12;32.08;;;20.15;;
22764;SDS011;11549;50.852;3.816;2023-04-24T06:00:41;36.45;;;21.30;;
22764;SDS011;11549;50.852;3.816;2023-04-24T06:03:11;36.58;;;20.85;;
22764;SDS011;11549;50.852;3.816;2023-04-24T06:05:39;34.70;;;21.42;;
22764;SDS011;11549;50.852;3.816;2023-04-24T06:08:08;35.88;;;21.80;;
22764;SDS011;11549;50.852;3.816;2023-04-24T06:10:37;34.85;;;21.42;;
22764;SDS011;11549;50.852;3.816;2023-04-24T06:13:06;36.83;;;21.10;;
22764;SDS011;11549;50.852;3.816;2023-04-24T06:15:35;36.70;;;21.17;;
22764;SDS011;11549;50.852;3.816;2023-04-24T06:18:03;36.08;;;20.90;;
22764;SDS011;11549;50.852;3.816;2023-04-24T06:20:31;31.45;;;19.73;;
22764;SDS011;11549;50.852;3.816;2023-04-24T06:23:00;35.65;;;20.05;;
22764;SDS011;11549;50.852;3.816;2023-04-24T06:25:28;35.95;;;20.15;;
22764;SDS011;11549;50.852;3.816;2023-04-24T06:27:57;32.97;;;20.05;;
22764;SDS011;11549;50.852;3.816;2023-04-24T06:30:26;33.53;;;20.65;;
22764;SDS011;11549;50.852;3.816;2023-04-24T06:32:54;32.35;;;19.17;;
22764;SDS011;11549;50.852;3.816;2023-04-24T06:35:35;36.38;;;19.98;;
22764;SDS011;11549;50.852;3.816;2023-04-24T06:38:04;33.17;;;19.83;;
22764;SDS011;11549;50.852;3.816;2023-04-24T06:40:33;33.75;;;19.30;;
22764;SDS011;11549;50.852;3.816;2023-04-24T06:43:01;36.55;;;20.95;;
22764;SDS011;11549;50.852;3.816;2023-04-24T06:45:31;32.78;;;18.83;;
22764;SDS011;11549;50.852;3.816;2023-04-24T06:47:59;31.08;;;18.30;;
22764;SDS011;11549;50.852;3.816;2023-04-24T06:50:28;32.88;;;18.15;;
22764;SDS011;11549;50.852;3.816;2023-04-24T06:52:56;29.77;;;18.55;;
22764;SDS011;11549;50.852;3.816;2023-04-24T06:55:25;27.83;;;18.17;;
22764;SDS011;11549;50.852;3.816;2023-04-24T06:57:53;29.77;;;18.00;;
22764;SDS011;11549;50.852;3.816;2023-04-24T07:00:21;27.52;;;17.88;;
22764;SDS011;11549;50.852;3.816;2023-04-24T07:02:52;32.05;;;18.45;;
22764;SDS011;11549;50.852;3.816;2023-04-24T07:05:21;29.58;;;18.05;;
22764;SDS011;11549;50.852;3.816;2023-04-24T07:07:49;30.95;;;17.48;;
22764;SDS011;11549;50.852;3.816;2023-04-24T07:10:18;30.75;;;17.48;;
22764;SDS011;11549;50.852;3.816;2023-04-24T07:12:47;28.17;;;17.27;;
22764;SDS011;11549;50.852;3.816;2023-04-24T07:15:16;26.73;;;16.00;;
22764;SDS011;11549;50.852;3.816;2023-04-24T07:17:44;25.30;;;15.07;;
22764;SDS011;11549;50.852;3.816;2023-04-24T07:20:15;25.55;;;14.48;;
22764;SDS011;11549;50.852;3.816;2023-04-24T07:22:43;22.85;;;14.32;;
22764;SDS011;11549;50.852;3.816;2023-04-24T07:25:11;27.65;;;14.30;;
22764;SDS011;11549;50.852;3.816;2023-04-24T07:27:39;22.30;;;13.52;;
22764;SDS011;11549;50.852;3.816;2023-04-24T07:30:08;24.67;;;13.48;;
22764;SDS011;11549;50.852;3.816;2023-04-24T07:32:36;22.48;;;12.35;;
22764;SDS011;11549;50.852;3.816;2023-04-24T07:35:05;21.33;;;12.73;;
22764;SDS011;11549;50.852;3.816;2023-04-24T07:37:37;18.70;;;12.55;;
22764;SDS011;11549;50.852;3.816;2023-04-24T07:40:06;20.08;;;12.10;;
22764;SDS011;11549;50.852;3.816;2023-04-24T07:42:35;23.83;;;12.20;;
22764;SDS011;11549;50.852;3.816;2023-04-24T07:45:03;21.88;;;12.50;;
22764;SDS011;11549;50.852;3.816;2023-04-24T07:47:34;22.70;;;12.32;;
22764;SDS011;11549;50.852;3.816;2023-04-24T07:50:03;26.73;;;12.25;;
22764;SDS011;11549;50.852;3.816;2023-04-24T07:52:32;25.77;;;12.32;;
22764;SDS011;11549;50.852;3.816;2023-04-24T07:55:02;23.25;;;10.88;;
22764;SDS011;11549;50.852;3.816;2023-04-24T07:57:31;19.90;;;9.65;;
22764;SDS011;11549;50.852;3.816;2023-04-24T07:59:59;17.45;;;9.30;;
22764;SDS011;11549;50.852;3.816;2023-04-24T08:02:27;15.30;;;8.77;;
22764;SDS011;11549;50.852;3.816;2023-04-24T08:04:56;17.08;;;8.60;;
22764;SDS011;11549;50.852;3.816;2023-04-24T08:07:25;16.50;;;8.23;;
22764;SDS011;11549;50.852;3.816;2023-04-24T08:09:54;16.05;;;7.60;;
22764;SDS011;11549;50.852;3.816;2023-04-24T08:12:23;18.45;;;7.53;;
22764;SDS011;11549;50.852;3.816;2023-04-24T08:14:51;13.30;;;6.80;;
22764;SDS011;11549;50.852;3.816;2023-04-24T08:17:20;14.63;;;6.40;;
22764;SDS011;11549;50.852;3.816;2023-04-24T08:19:49;13.23;;;6.82;;
22764;SDS011;11549;50.852;3.816;2023-04-24T08:22:18;11.38;;;5.53;;
22764;SDS011;11549;50.852;3.816;2023-04-24T08:24:47;14.70;;;5.75;;
22764;SDS011;11549;50.852;3.816;2023-04-24T08:27:15;13.40;;;5.85;;
22764;SDS011;11549;50.852;3.816;2023-04-24T08:29:45;16.85;;;7.13;;
22764;SDS011;11549;50.852;3.816;2023-04-24T08:32:14;14.43;;;7.70;;
22764;SDS011;11549;50.852;3.816;2023-04-24T08:34:42;13.75;;;6.63;;
22764;SDS011;11549;50.852;3.816;2023-04-24T08:37:11;15.30;;;7.55;;
22764;SDS011;11549;50.852;3.816;2023-04-24T08:39:40;13.95;;;7.85;;
22764;SDS011;11549;50.852;3.816;2023-04-24T08:42:09;19.77;;;8.32;;
22764;SDS011;11549;50.852;3.816;2023-04-24T08:44:40;13.70;;;7.38;;
22764;SDS011;11549;50.852;3.816;2023-04-24T08:47:10;18.08;;;7.15;;
22764;SDS011;11549;50.852;3.816;2023-04-24T08:49:41;14.77;;;7.43;;
22764;SDS011;11549;50.852;3.816;2023-04-24T08:52:12;11.20;;;6.50;;
22764;SDS011;11549;50.852;3.816;2023-04-24T08:54:40;12.32;;;6.88;;
22764;SDS011;11549;50.852;3.816;2023-04-24T08:57:12;15.02;;;7.00;;
22764;SDS011;11549;50.852;3.816;2023-04-24T08:59:42;15.73;;;6.95;;
22764;SDS011;11549;50.852;3.816;2023-04-24T09:02:13;13.57;;;5.75;;
22764;SDS011;11549;50.852;3.816;2023-04-24T09:04:43;11.00;;;5.75;;
22764;SDS011;11549;50.852;3.816;2023-04-24T09:07:14;14.93;;;5.80;;
22764;SDS011;11549;50.852;3.816;2023-04-24T09:09:44;15.05;;;6.13;;
22764;SDS011;11549;50.852;3.816;2023-04-24T09:12:13;11.02;;;5.65;;
22764;SDS011;11549;50.852;3.816;2023-04-24T09:14:41;11.43;;;5.70;;
22764;SDS011;11549;50.852;3.816;2023-04-24T09:17:13;11.63;;;6.10;;
22764;SDS011;11549;50.852;3.816;2023-04-24T09:19:41;11.85;;;6.38;;
22764;SDS011;11549;50.852;3.816;2023-04-24T09:22:10;12.75;;;6.18;;
22764;SDS011;11549;50.852;3.816;2023-04-24T09:24:39;13.52;;;6.47;;
22764;SDS011;11549;50.852;3.816;2023-04-24T09:27:08;12.70;;;6.10;;
22764;SDS011;11549;50.852;3.816;2023-04-24T09:29:39;13.88;;;6.68;;
22764;SDS011;11549;50.852;3.816;2023-04-24T09:32:22;13.68;;;6.63;;
22764;SDS011;11549;50.852;3.816;2023-04-24T09:35:05;14.50;;;7.80;;
22764;SDS011;11549;50.852;3.816;2023-04-24T09:37:35;12.38;;;6.72;;
22764;SDS011;11549;50.852;3.816;2023-04-24T09:40:08;13.02;;;7.30;;
22764;SDS011;11549;50.852;3.816;2023-04-24T09:42:39;17.05;;;8.00;;
22764;SDS011;11549;50.852;3.816;2023-04-24T09:45:10;15.02;;;7.78;;
22764;SDS011;11549;50.852;3.816;2023-04-24T09:50:12;17.23;;;7.57;;
22764;SDS011;11549;50.852;3.816;2023-04-24T09:52:43;14.27;;;7.90;;
22764;SDS011;11549;50.852;3.816;2023-04-24T09:55:16;16.58;;;8.18;;
22764;SDS011;11549;50.852;3.816;2023-04-24T09:57:47;12.27;;;7.88;;
22764;SDS011;11549;50.852;3.816;2023-04-24T10:00:21;15.13;;;7.53;;
22764;SDS011;11549;50.852;3.816;2023-04-24T10:02:51;12.48;;;7.25;;
22764;SDS011;11549;50.852;3.816;2023-04-24T10:05:24;12.07;;;7.72;;
22764;SDS011;11549;50.852;3.816;2023-04-24T10:07:58;12.85;;;7.68;;
22764;SDS011;11549;50.852;3.816;2023-04-24T10:10:29;11.23;;;8.00;;
22764;SDS011;11549;50.852;3.816;2023-04-24T10:12:58;12.13;;;8.23;;
22764;SDS011;11549;50.852;3.816;2023-04-24T10:15:27;14.48;;;8.68;;
22764;SDS011;11549;50.852;3.816;2023-04-24T10:17:59;13.90;;;8.10;;
22764;SDS011;11549;50.852;3.816;2023-04-24T10:20:28;13.52;;;8.13;;
22764;SDS011;11549;50.852;3.816;2023-04-24T10:22:58;16.02;;;9.48;;
22764;SDS011;11549;50.852;3.816;2023-04-24T10:25:28;15.40;;;8.85;;
22764;SDS011;11549;50.852;3.816;2023-04-24T10:27:58;14.68;;;8.45;;
22764;SDS011;11549;50.852;3.816;2023-04-24T10:30:28;12.57;;;7.97;;
22764;SDS011;11549;50.852;3.816;2023-04-24T10:33:00;14.90;;;8.60;;
22764;SDS011;11549;50.852;3.816;2023-04-24T10:35:30;14.45;;;9.35;;
22764;SDS011;11549;50.852;3.816;2023-04-24T10:38:01;14.60;;;9.30;;
22764;SDS011;11549;50.852;3.816;2023-04-24T10:40:33;16.90;;;9.85;;
22764;SDS011;11549;50.852;3.816;2023-04-24T10:43:03;15.32;;;9.07;;
22764;SDS011;11549;50.852;3.816;2023-04-24T10:45:34;19.25;;;10.50;;
22764;SDS011;11549;50.852;3.816;2023-04-24T10:48:05;17.35;;;11.13;;
22764;SDS011;11549;50.852;3.816;2023-04-24T10:50:42;16.75;;;10.40;;
22764;SDS011;11549;50.852;3.816;2023-04-24T10:53:13;19.33;;;10.73;;
22764;SDS011;11549;50.852;3.816;2023-04-24T10:55:43;14.88;;;10.65;;
22764;SDS011;11549;50.852;3.816;2023-04-24T10:58:12;18.88;;;11.70;;
22764;SDS011;11549;50.852;3.816;2023-04-24T11:00:43;17.90;;;11.30;;
22764;SDS011;11549;50.852;3.816;2023-04-24T11:05:59;15.50;;;9.93;;
22764;SDS011;11549;50.852;3.816;2023-04-24T11:08:29;18.77;;;10.18;;
22764;SDS011;11549;50.852;3.816;2023-04-24T11:11:01;15.90;;;9.55;;
22764;SDS011;11549;50.852;3.816;2023-04-24T11:16:35;16.95;;;10.07;;
22764;SDS011;11549;50.852;3.816;2023-04-24T11:19:20;15.88;;;10.20;;
22764;SDS011;11549;50.852;3.816;2023-04-24T11:21:54;14.63;;;10.43;;
22764;SDS011;11549;50.852;3.816;2023-04-24T11:24:32;17.17;;;11.45;;
22764;SDS011;11549;50.852;3.816;2023-04-24T11:27:06;15.30;;;11.43;;
22764;SDS011;11549;50.852;3.816;2023-04-24T11:29:41;16.30;;;11.77;;
22764;SDS011;11549;50.852;3.816;2023-04-24T11:32:14;21.88;;;12.60;;
22764;SDS011;11549;50.852;3.816;2023-04-24T11:34:49;18.17;;;11.65;;
22764;SDS011;11549;50.852;3.816;2023-04-24T11:37:18;15.73;;;12.50;;
22764;SDS011;11549;50.852;3.816;2023-04-24T11:39:47;15.88;;;11.55;;
22764;SDS011;11549;50.852;3.816;2023-04-24T11:42:18;18.55;;;11.45;;
22764;SDS011;11549;50.852;3.816;2023-04-24T11:44:49;15.68;;;11.30;;
22764;SDS011;11549;50.852;3.816;2023-04-24T11:47:17;14.35;;;11.23;;
22764;SDS011;11549;50.852;3.816;2023-04-24T11:49:46;12.88;;;10.57;;
22764;SDS011;11549;50.852;3.816;2023-04-24T11:52:16;14.30;;;10.98;;
22764;SDS011;11549;50.852;3.816;2023-04-24T11:54:48;14.70;;;11.13;;
22764;SDS011;11549;50.852;3.816;2023-04-24T11:57:18;15.80;;;10.57;;
22764;SDS011;11549;50.852;3.816;2023-04-24T11:59:48;13.77;;;10.18;;
22764;SDS011;11549;50.852;3.816;2023-04-24T12:02:20;14.10;;;9.80;;
22764;SDS011;11549;50.852;3.816;2023-04-24T12:04:51;14.02;;;9.50;;
22764;SDS011;11549;50.852;3.816;2023-04-24T12:07:22;13.88;;;9.48;;
22764;SDS011;11549;50.852;3.816;2023-04-24T12:09:55;11.48;;;9.15;;
22764;SDS011;11549;50.852;3.816;2023-04-24T12:12:25;12.27;;;9.02;;
22764;SDS011;11549;50.852;3.816;2023-04-24T12:14:55;12.93;;;8.52;;
22764;SDS011;11549;50.852;3.816;2023-04-24T12:17:25;13.82;;;8.55;;
22764;SDS011;11549;50.852;3.816;2023-04-24T12:19:57;12.23;;;8.05;;
22764;SDS011;11549;50.852;3.816;2023-04-24T12:22:36;14.30;;;7.70;;
22764;SDS011;11549;50.852;3.816;2023-04-24T12:25:12;10.65;;;6.93;;
22764;SDS011;11549;50.852;3.816;2023-04-24T12:27:41;10.80;;;5.90;;
22764;SDS011;11549;50.852;3.816;2023-04-24T12:30:11;8.82;;;6.28;;
22764;SDS011;11549;50.852;3.816;2023-04-24T12:32:41;9.43;;;6.30;;
22764;SDS011;11549;50.852;3.816;2023-04-24T12:35:10;9.38;;;5.43;;
22764;SDS011;11549;50.852;3.816;2023-04-24T12:37:41;9.52;;;5.60;;
22764;SDS011;11549;50.852;3.816;2023-04-24T12:40:13;10.00;;;6.50;;
22764;SDS011;11549;50.852;3.816;2023-04-24T12:42:43;9.88;;;5.13;;
22764;SDS011;11549;50.852;3.816;2023-04-24T12:45:13;10.38;;;5.60;;
22764;SDS011;11549;50.852;3.816;2023-04-24T12:47:42;9.98;;;5.40;;
22764;SDS011;11549;50.852;3.816;2023-04-24T12:50:12;8.38;;;4.70;;
22764;SDS011;11549;50.852;3.816;2023-04-24T12:52:43;8.65;;;4.80;;
22764;SDS011;11549;50.852;3.816;2023-04-24T12:55:11;8.02;;;4.85;;
22764;SDS011;11549;50.852;3.816;2023-04-24T12:57:40;9.77;;;5.20;;
22764;SDS011;11549;50.852;3.816;2023-04-24T13:00:09;11.13;;;5.63;;
22764;SDS011;11549;50.852;3.816;2023-04-24T13:02:38;8.93;;;5.10;;
22764;SDS011;11549;50.852;3.816;2023-04-24T13:05:07;7.68;;;4.90;;
22764;SDS011;11549;50.852;3.816;2023-04-24T13:07:37;7.97;;;4.90;;
22764;SDS011;11549;50.852;3.816;2023-04-24T13:10:08;8.93;;;4.28;;
22764;SDS011;11549;50.852;3.816;2023-04-24T13:12:37;7.93;;;3.90;;
22764;SDS011;11549;50.852;3.816;2023-04-24T13:15:06;5.15;;;3.45;;
22764;SDS011;11549;50.852;3.816;2023-04-24T13:17:35;7.55;;;3.70;;
22764;SDS011;11549;50.852;3.816;2023-04-24T13:20:04;6.57;;;4.00;;
22764;SDS011;11549;50.852;3.816;2023-04-24T13:22:34;6.55;;;3.58;;
22764;SDS011;11549;50.852;3.816;2023-04-24T13:25:03;8.35;;;4.07;;
22764;SDS011;11549;50.852;3.816;2023-04-24T13:27:35;7.50;;;3.78;;
22764;SDS011;11549;50.852;3.816;2023-04-24T13:30:03;7.45;;;4.18;;
22764;SDS011;11549;50.852;3.816;2023-04-24T13:32:32;7.07;;;3.85;;
22764;SDS011;11549;50.852;3.816;2023-04-24T13:35:02;6.57;;;3.30;;
22764;SDS011;11549;50.852;3.816;2023-04-24T13:37:30;6.78;;;3.25;;
22764;SDS011;11549;50.852;3.816;2023-04-24T13:39:58;6.70;;;3.30;;
22764;SDS011;11549;50.852;3.816;2023-04-24T13:42:27;5.55;;;3.22;;
22764;SDS011;11549;50.852;3.816;2023-04-24T13:44:57;5.57;;;3.10;;
22764;SDS011;11549;50.852;3.816;2023-04-24T13:47:27;8.15;;;3.42;;
22764;SDS011;11549;50.852;3.816;2023-04-24T13:49:56;7.68;;;3.30;;
22764;SDS011;11549;50.852;3.816;2023-04-24T13:52:24;6.55;;;2.97;;
22764;SDS011;11549;50.852;3.816;2023-04-24T13:54:53;4.70;;;2.80;;
22764;SDS011;11549;50.852;3.816;2023-04-24T13:57:22;6.35;;;2.67;;
22764;SDS011;11549;50.852;3.816;2023-04-24T13:59:50;5.25;;;2.70;;
22764;SDS011;11549;50.852;3.816;2023-04-24T14:02:20;4.55;;;2.80;;
22764;SDS011;11549;50.852;3.816;2023-04-24T14:04:48;5.07;;;2.90;;
22764;SDS011;11549;50.852;3.816;2023-04-24T14:07:17;4.43;;;2.70;;
22764;SDS011;11549;50.852;3.816;2023-04-24T14:09:46;7.00;;;2.83;;
22764;SDS011;11549;50.852;3.816;2023-04-24T14:12:14;5.75;;;2.88;;
22764;SDS011;11549;50.852;3.816;2023-04-24T14:14:45;5.53;;;2.40;;
22764;SDS011;11549;50.852;3.816;2023-04-24T14:17:14;6.15;;;2.60;;
22764;SDS011;11549;50.852;3.816;2023-04-24T14:19:44;6.75;;;2.50;;
22764;SDS011;11549;50.852;3.816;2023-04-24T14:22:12;5.35;;;2.20;;
22764;SDS011;11549;50.852;3.816;2023-04-24T14:24:40;4.95;;;2.28;;
22764;SDS011;11549;50.852;3.816;2023-04-24T14:27:09;5.00;;;2.30;;
22764;SDS011;11549;50.852;3.816;2023-04-24T14:29:37;6.35;;;2.53;;
22764;SDS011;11549;50.852;3.816;2023-04-24T14:32:05;6.53;;;2.60;;
22764;SDS011;11549;50.852;3.816;2023-04-24T14:34:35;5.45;;;2.45;;
22764;SDS011;11549;50.852;3.816;2023-04-24T14:37:04;5.10;;;2.30;;
22764;SDS011;11549;50.852;3.816;2023-04-24T14:39:33;6.20;;;2.85;;
22764;SDS011;11549;50.852;3.816;2023-04-24T14:42:01;6.25;;;2.08;;
22764;SDS011;11549;50.852;3.816;2023-04-24T14:44:29;6.15;;;1.83;;
22764;SDS011;11549;50.852;3.816;2023-04-24T14:46:58;5.47;;;1.85;;
22764;SDS011;11549;50.852;3.816;2023-04-24T14:49:26;4.07;;;1.60;;
22764;SDS011;11549;50.852;3.816;2023-04-24T14:51:55;5.03;;;1.60;;